createdAt,value
2022-10-28T00:00:35.153Z,511.13
2022-10-28T00:03:45.472Z,552.05
2022-10-28T00:06:54.618Z,449.95
2022-10-28T00:10:03.547Z,433.13
2022-10-28T00:13:12.412Z,428.92
2022-10-28T00:16:24.892Z,355.75
2022-10-28T00:19:33.776Z,475.00
2022-10-28T00:22:42.732Z,500.02
2022-10-28T00:25:52.899Z,705.60
2022-10-28T00:29:19.631Z,624.17
2022-10-28T00:32:31.993Z,777.83
2022-10-28T00:35:40.895Z,957.65
2022-10-28T00:38:53.555Z,817.63
2022-10-28T00:42:03.804Z,515.10
2022-10-28T00:45:13.257Z,649.30
2022-10-28T00:48:23.533Z,475.77
2022-10-28T00:51:33.608Z,575.42
2022-10-28T00:54:42.548Z,1013.97
2022-10-28T00:57:51.787Z,376.13
2022-10-28T01:01:00.931Z,446.38
2022-10-28T01:04:11.736Z,326.77
2022-10-28T01:07:21.094Z,427.85
2022-10-28T01:10:41.574Z,549.90
2022-10-28T01:14:01.602Z,449.42
2022-10-28T01:17:33.549Z,424.00
2022-10-28T01:21:18.561Z,585.10
2022-10-28T01:24:41.826Z,449.83
2022-10-28T01:28:14.582Z,627.03
2022-10-28T09:47:18.092Z,21.48
2022-10-28T09:49:47.933Z,25.92
2022-10-28T09:52:20.406Z,21.92
2022-10-28T09:54:52.059Z,30.38
2022-10-28T09:57:21.287Z,26.27
2022-10-28T09:59:49.972Z,26.93
2022-10-28T10:02:29.762Z,25.67
2022-10-28T10:04:58.977Z,32.30
2022-10-28T10:07:35.459Z,21.92
2022-10-28T10:10:07.932Z,21.88
2022-10-28T10:12:36.702Z,25.80
2022-10-28T10:15:07.489Z,28.15
2022-10-28T10:17:41.944Z,27.75
2022-10-28T10:20:13.390Z,24.80
2022-10-28T10:22:43.268Z,23.40
2022-10-28T10:25:30.097Z,24.95
2022-10-28T10:28:01.462Z,22.00
2022-10-28T10:30:32.824Z,23.85
2022-10-28T10:33:03.405Z,23.25
2022-10-28T10:35:33.131Z,24.90
2022-10-28T10:40:32.520Z,28.27
2022-10-28T10:43:20.333Z,20.42
2022-10-28T10:45:53.615Z,26.13
2022-10-28T10:48:23.660Z,20.45
2022-10-28T10:50:52.537Z,24.67
2022-10-28T10:53:24.414Z,25.17
2022-10-28T10:55:55.762Z,22.45
2022-10-28T10:58:26.080Z,22.45
2022-10-28T11:00:56.988Z,21.70
2022-10-28T11:03:30.027Z,21.00
2022-10-28T11:06:21.855Z,16.00
2022-10-28T11:08:49.041Z,19.67
2022-10-28T11:11:21.359Z,17.48
2022-10-28T11:13:50.753Z,21.27
2022-10-28T11:16:21.417Z,18.25
2022-10-28T11:18:53.032Z,19.35
2022-10-28T11:21:43.349Z,17.20
2022-10-28T11:24:32.205Z,22.27
2022-10-28T11:27:06.014Z,17.45
2022-10-28T11:29:34.835Z,16.27
2022-10-28T11:32:20.371Z,17.17
2022-10-28T11:35:00.645Z,18.25
2022-10-28T11:37:38.299Z,17.80
2022-10-28T11:40:19.040Z,15.68
2022-10-28T11:42:53.014Z,18.38
2022-10-28T11:45:26.740Z,12.65
2022-10-28T11:48:13.504Z,16.27
2022-10-28T11:50:54.403Z,13.80
2022-10-28T11:53:36.286Z,12.93
2022-10-28T11:56:10.729Z,13.05
2022-10-28T11:58:43.760Z,18.10
2022-10-28T12:01:22.238Z,14.63
2022-10-28T12:04:01.291Z,15.45
2022-10-28T12:06:42.028Z,15.30
2022-10-28T12:09:19.331Z,15.65
2022-10-28T12:11:58.088Z,19.10
2022-10-28T12:14:34.673Z,13.32
2022-10-28T12:17:13.023Z,15.30
2022-10-28T12:19:45.332Z,12.52
2022-10-28T12:22:18.097Z,14.75
2022-10-28T12:24:47.703Z,11.48
2022-10-28T12:27:18.706Z,13.50
2022-10-28T12:29:49.640Z,12.35
2022-10-28T12:32:21.796Z,14.75
2022-10-28T12:34:53.066Z,12.05
2022-10-28T12:37:25.508Z,13.68
2022-10-28T12:39:57.979Z,13.75
2022-10-28T12:42:30.435Z,16.00
2022-10-28T12:45:00.578Z,11.85
2022-10-28T12:50:05.949Z,17.02
2022-10-28T12:52:48.904Z,10.93
2022-10-28T12:55:22.465Z,13.77
2022-10-28T12:57:55.320Z,9.05
2022-10-28T13:00:27.316Z,8.25
2022-10-28T13:03:02.055Z,14.73
2022-10-28T13:05:35.594Z,11.60
2022-10-28T13:08:33.603Z,11.20
2022-10-28T13:11:36.984Z,12.73
2022-10-28T13:14:13.607Z,10.90
2022-10-28T13:17:16.507Z,9.38
2022-10-28T13:20:04.643Z,19.17
2022-10-28T13:22:50.841Z,9.40
2022-10-28T13:25:34.181Z,10.15
2022-10-28T13:28:02.878Z,9.40
2022-10-28T13:30:32.232Z,10.35
2022-10-28T13:33:06.493Z,11.63
2022-10-28T13:35:35.639Z,20.65
2022-10-28T13:38:04.643Z,9.13
2022-10-28T13:41:28.046Z,13.93
2022-10-28T13:44:16.092Z,16.63
2022-10-28T13:47:27.770Z,15.00
2022-10-28T13:50:32.686Z,16.05
2022-10-28T13:53:41.665Z,12.48
2022-10-28T13:56:33.290Z,18.70
2022-10-28T13:59:04.031Z,17.45
2022-10-28T14:02:02.275Z,13.75
2022-10-28T14:04:44.033Z,10.40
2022-10-28T14:07:24.497Z,13.55
2022-10-28T14:09:55.582Z,18.13
2022-10-28T14:12:28.158Z,17.92
2022-10-28T14:15:07.681Z,17.67
2022-10-28T14:17:39.052Z,15.00
2022-10-28T14:20:21.780Z,18.30
2022-10-28T14:22:51.234Z,16.27
2022-10-28T14:26:04.628Z,19.58
2022-10-28T14:28:54.592Z,15.25
2022-10-28T14:31:41.112Z,12.13
2022-10-28T14:34:33.791Z,21.95
2022-10-28T14:37:11.745Z,12.85
2022-10-28T14:39:42.420Z,14.02
2022-10-28T14:42:30.425Z,23.13
2022-10-28T14:45:20.528Z,17.98
2022-10-28T14:48:04.665Z,18.98
2022-10-28T14:50:39.503Z,16.13
2022-10-28T14:53:13.658Z,16.83
2022-10-28T14:55:42.181Z,20.45
2022-10-28T14:58:19.906Z,19.30
2022-10-28T15:00:57.147Z,16.80
2022-10-28T15:03:26.628Z,25.75
2022-10-28T15:05:55.325Z,24.97
2022-10-28T15:08:25.689Z,25.95
2022-10-28T15:10:54.013Z,26.00
2022-10-28T15:13:27.573Z,27.80
2022-10-28T15:15:59.469Z,18.58
2022-10-28T15:18:31.092Z,20.33
2022-10-28T15:21:10.122Z,19.23
2022-10-28T15:23:39.167Z,18.33
2022-10-28T15:26:09.020Z,18.65
2022-10-28T15:28:38.115Z,25.40
2022-10-28T15:31:08.312Z,16.63
2022-10-28T15:33:40.555Z,22.38
2022-10-28T15:36:16.661Z,21.33
2022-10-28T15:38:47.392Z,20.45
2022-10-28T15:41:41.957Z,17.50
2022-10-28T15:44:29.089Z,21.63
2022-10-28T15:46:59.614Z,22.98
2022-10-28T15:49:36.933Z,26.40
2022-10-28T15:52:33.706Z,22.15
2022-10-28T15:55:03.472Z,32.42
2022-10-28T15:57:36.563Z,23.83
2022-10-28T16:00:23.440Z,19.42
2022-10-28T16:02:56.368Z,25.50
2022-10-28T16:05:55.485Z,28.75
2022-10-28T16:08:26.462Z,25.25
2022-10-28T16:10:57.788Z,21.63
2022-10-28T16:13:29.622Z,25.75
2022-10-28T16:16:04.472Z,22.08
2022-10-28T16:18:39.948Z,28.98
2022-10-28T16:21:08.811Z,23.02
2022-10-28T16:23:40.243Z,20.60
2022-10-28T16:26:10.622Z,25.00
2022-10-28T16:28:41.418Z,29.13
2022-10-28T16:31:16.851Z,22.48
2022-10-28T16:33:47.178Z,25.17
2022-10-28T16:38:44.779Z,28.45
2022-10-28T16:41:16.531Z,17.30
2022-10-28T16:43:45.608Z,26.42
2022-10-28T16:46:14.971Z,21.45
2022-10-28T16:48:43.670Z,20.17
2022-10-28T16:51:16.566Z,17.20
2022-10-28T16:53:47.387Z,19.67
2022-10-28T16:56:16.337Z,22.50
2022-10-28T16:58:46.315Z,21.30
2022-10-28T17:01:19.281Z,22.55
2022-10-28T17:03:48.079Z,22.25
2022-10-28T17:06:18.151Z,19.65
2022-10-28T17:09:02.443Z,19.33
2022-10-28T17:14:05.812Z,20.20
2022-10-28T17:16:35.978Z,19.95
2022-10-28T17:19:06.753Z,21.48
2022-10-28T17:21:36.800Z,22.45
2022-10-28T17:24:05.850Z,22.08
2022-10-28T17:26:34.591Z,24.70
2022-10-28T17:29:03.336Z,24.13
2022-10-28T17:31:31.668Z,27.60
2022-10-28T17:34:00.405Z,21.92
2022-10-28T17:36:29.057Z,21.42
2022-10-28T17:38:59.250Z,22.35
2022-10-28T17:41:27.989Z,24.40
2022-10-28T17:43:56.424Z,26.80
2022-10-28T17:46:25.223Z,20.80
2022-10-28T17:48:53.882Z,21.02
2022-10-28T17:51:25.154Z,21.08
2022-10-28T17:53:55.084Z,26.05
2022-10-28T17:56:25.245Z,23.40
2022-10-28T17:58:54.429Z,30.33
2022-10-28T18:01:23.174Z,20.92
2022-10-28T18:03:52.367Z,24.92
2022-10-28T18:06:21.394Z,19.25
2022-10-28T18:11:26.602Z,22.35
2022-10-28T18:13:56.445Z,20.67
2022-10-28T18:16:28.243Z,19.55
2022-10-28T18:18:57.264Z,20.90
2022-10-28T18:21:26.018Z,22.75
2022-10-28T18:24:03.777Z,22.88
2022-10-28T18:26:35.427Z,22.35
2022-10-28T18:29:05.048Z,26.60
2022-10-28T18:31:34.273Z,17.77
2022-10-28T18:34:03.520Z,19.53
2022-10-28T18:36:34.621Z,21.35
2022-10-28T18:39:04.780Z,18.40
2022-10-28T18:41:38.071Z,23.38
2022-10-28T18:44:07.022Z,23.38
2022-10-28T18:46:37.705Z,21.60
2022-10-28T18:49:06.846Z,20.92
2022-10-28T18:51:35.536Z,19.38
2022-10-28T18:54:05.079Z,18.17
2022-10-28T18:56:35.295Z,19.27
2022-10-28T18:59:05.272Z,27.80
2022-10-28T19:01:34.068Z,19.80
2022-10-28T19:04:04.310Z,26.27
2022-10-28T19:06:34.507Z,17.92
2022-10-28T19:09:04.661Z,19.50
2022-10-28T19:14:05.663Z,12.05
2022-10-28T19:16:34.888Z,15.32
2022-10-28T19:19:05.067Z,14.20
2022-10-28T19:21:34.583Z,19.75
2022-10-28T19:24:03.635Z,18.10
2022-10-28T19:26:33.715Z,19.33
2022-10-28T19:29:05.543Z,21.83
2022-10-28T19:31:37.006Z,14.88
2022-10-28T19:34:05.751Z,16.77
2022-10-28T19:36:35.100Z,14.23
2022-10-28T19:39:04.808Z,19.65
2022-10-28T19:41:33.650Z,18.67
2022-10-28T19:44:04.285Z,13.40
2022-10-28T19:46:34.041Z,15.05
2022-10-28T19:49:05.299Z,20.65
2022-10-28T19:51:35.799Z,16.83
2022-10-28T19:54:06.110Z,16.85
2022-10-28T19:56:36.216Z,14.68
2022-10-28T19:59:07.704Z,15.23
2022-10-28T20:01:37.497Z,18.33
2022-10-28T20:04:06.984Z,15.20
2022-10-28T20:06:37.083Z,18.67
2022-10-28T20:09:06.160Z,13.63
2022-10-28T20:11:35.933Z,19.23
2022-10-28T20:14:08.503Z,15.30
2022-10-28T20:16:37.240Z,18.40
2022-10-28T20:19:05.996Z,17.58
2022-10-28T20:21:35.288Z,18.80
2022-10-28T20:24:06.828Z,16.92
2022-10-28T20:26:36.839Z,19.20
2022-10-28T20:29:09.856Z,17.73
2022-10-28T20:31:39.662Z,17.25
2022-10-28T20:34:08.731Z,12.20
2022-10-28T20:36:38.737Z,16.73
2022-10-28T20:39:10.493Z,13.73
2022-10-28T20:41:40.424Z,16.50
2022-10-28T20:44:10.804Z,14.23
2022-10-28T20:46:39.356Z,21.58
2022-10-28T20:49:08.811Z,15.85
2022-10-28T20:51:38.026Z,15.83
2022-10-28T20:54:07.050Z,13.60
2022-10-28T20:56:37.400Z,20.67
2022-10-28T20:59:06.413Z,16.33
2022-10-28T21:01:37.846Z,17.27
2022-10-28T21:04:08.033Z,18.80
2022-10-28T21:06:37.711Z,14.70
2022-10-28T21:09:06.518Z,21.13
2022-10-28T21:11:35.239Z,15.32
2022-10-28T21:14:04.100Z,16.42
2022-10-28T21:16:32.418Z,16.38
2022-10-28T21:19:02.996Z,15.43
2022-10-28T21:21:31.875Z,13.43
2022-10-28T21:24:00.586Z,15.75
2022-10-28T21:26:29.200Z,15.52
2022-10-28T21:28:57.773Z,15.48
2022-10-28T21:31:26.096Z,16.85
2022-10-28T21:33:54.777Z,21.02
2022-10-28T21:36:24.798Z,21.77
2022-10-28T21:38:56.561Z,17.50
2022-10-28T21:41:26.044Z,17.33
2022-10-28T21:43:55.059Z,16.80
2022-10-28T21:46:24.724Z,21.90
2022-10-28T21:48:53.887Z,15.20
2022-10-28T21:51:22.578Z,16.17
2022-10-28T21:53:52.629Z,17.75
2022-10-28T21:56:21.582Z,19.05
2022-10-28T21:58:50.893Z,17.23
2022-10-28T22:01:21.472Z,30.35
2022-10-28T22:03:51.119Z,16.65
2022-10-28T22:06:19.841Z,21.02
2022-10-28T22:08:48.905Z,17.33
2022-10-28T22:11:20.144Z,17.83
2022-10-28T22:13:49.174Z,19.02
2022-10-28T22:16:18.921Z,20.45
2022-10-28T22:18:47.741Z,23.65
2022-10-28T22:21:19.776Z,22.35
2022-10-28T22:23:48.508Z,18.30
2022-10-28T22:26:21.177Z,17.88
2022-10-28T22:28:49.634Z,17.17
2022-10-28T22:31:20.009Z,18.50
2022-10-28T22:36:18.439Z,16.70
2022-10-28T22:38:47.431Z,18.67
2022-10-28T22:41:18.768Z,19.17
2022-10-28T22:43:48.128Z,15.52
2022-10-28T22:46:17.264Z,21.23
2022-10-28T22:48:46.225Z,15.63
2022-10-28T22:51:15.014Z,22.40
2022-10-28T22:53:43.941Z,17.30
2022-10-28T22:56:15.521Z,16.08
2022-10-28T22:58:45.174Z,17.58
2022-10-28T23:01:15.567Z,19.25
2022-10-28T23:06:14.500Z,17.92
2022-10-28T23:08:44.890Z,14.35
2022-10-28T23:11:16.827Z,16.00
2022-10-28T23:13:46.640Z,21.98
2022-10-28T23:16:16.861Z,18.80
2022-10-28T23:18:45.835Z,16.08
2022-10-28T23:21:16.321Z,16.92
2022-10-28T23:23:49.830Z,17.10
2022-10-28T23:26:22.158Z,19.58
2022-10-28T23:28:53.775Z,19.38
2022-10-28T23:31:22.960Z,22.13
2022-10-28T23:33:51.605Z,22.23
2022-10-28T23:36:20.286Z,20.48
2022-10-28T23:38:48.863Z,21.05
2022-10-28T23:41:18.940Z,32.67
2022-10-28T23:43:48.853Z,21.75
2022-10-28T23:46:20.525Z,20.27
2022-10-28T23:48:49.150Z,19.13
2022-10-28T23:51:19.370Z,24.08
2022-10-28T23:53:47.986Z,19.58
2022-10-28T23:56:16.657Z,17.20
2022-10-28T23:58:44.931Z,20.80
